Terminal Aerodrome Forecast
Issued by NWS

Home | Current Version | Previous Version | Text Only | Print | Product List | Glossary On
Versions: 1 2 3 4 5 6 7 8 9 10 11 12 13 14 15 16 17 18 19
799
FTUS43 KAPX 260118 RRA
TAFPLN
TAF
KPLN 260118Z 2601/2624 27005KT P6SM VCSH BKN050
     FM260200 VRB03KT P6SM -SHRA BKN050
     FM260400 00000KT P6SM VCSH BKN040
     FM260900 00000KT P6SM VCSH OVC025
     FM261200 15004KT P6SM -SHRA OVC018
     FM261800 26007KT P6SM OVC022
     FM262100 31007KT P6SM BKN035=

USA.gov is the U.S. government's official web portal to all federal, state and local government web resources and services.